createdAt,value
2019-02-25T00:00:19.538Z,4.03
2019-02-25T00:02:47.768Z,3.40
2019-02-25T00:05:15.988Z,3.57
2019-02-25T00:07:44.199Z,3.57
2019-02-25T00:10:12.410Z,3.87
2019-02-25T00:12:40.642Z,4.47
2019-02-25T00:15:09.523Z,3.77
2019-02-25T00:17:39.617Z,3.43
2019-02-25T00:20:11.529Z,3.70
2019-02-25T00:22:39.741Z,3.50
2019-02-25T00:25:11.685Z,3.43
2019-02-25T00:27:39.909Z,3.73
2019-02-25T00:30:09.581Z,3.23
2019-02-25T00:32:37.801Z,3.60
2019-02-25T00:35:06.211Z,4.40
2019-02-25T00:37:34.406Z,3.80
2019-02-25T00:40:02.626Z,3.27
2019-02-25T00:42:30.836Z,3.40
2019-02-25T00:44:59.059Z,3.87
2019-02-25T00:47:27.265Z,3.60
2019-02-25T00:49:55.497Z,4.07
2019-02-25T00:52:23.707Z,3.23
2019-02-25T00:54:52.242Z,3.83
2019-02-25T00:57:20.460Z,4.50
2019-02-25T00:59:48.687Z,4.07
2019-02-25T01:02:16.903Z,4.10
2019-02-25T01:04:45.129Z,3.80
2019-02-25T01:07:13.344Z,4.03
2019-02-25T01:09:41.630Z,3.83
2019-02-25T01:12:09.911Z,4.23
2019-02-25T01:14:38.150Z,4.13
2019-02-25T01:17:06.434Z,4.80
2019-02-25T01:19:34.659Z,4.17
2019-02-25T01:22:03.191Z,4.23
2019-02-25T01:24:31.415Z,3.53
2019-02-25T01:26:59.640Z,4.10
2019-02-25T01:29:27.866Z,3.70
2019-02-25T01:31:56.086Z,4.00
2019-02-25T01:34:24.311Z,3.83
2019-02-25T01:36:52.529Z,3.73
2019-02-25T01:39:20.754Z,3.50
2019-02-25T01:41:48.985Z,3.67
2019-02-25T01:44:17.216Z,3.60
2019-02-25T01:46:45.431Z,3.90
2019-02-25T01:49:13.644Z,3.40
2019-02-25T01:51:41.864Z,3.40
2019-02-25T01:54:10.087Z,3.87
2019-02-25T01:56:38.300Z,3.47
2019-02-25T01:59:06.519Z,3.30
2019-02-25T02:01:34.726Z,3.43
2019-02-25T02:04:02.964Z,3.07
2019-02-25T02:06:31.167Z,3.37
2019-02-25T02:08:59.391Z,3.30
2019-02-25T02:11:27.605Z,3.53
2019-02-25T02:13:55.811Z,3.83
2019-02-25T02:16:24.046Z,3.30
2019-02-25T02:18:52.262Z,4.27
2019-02-25T02:21:20.491Z,2.87
2019-02-25T02:23:48.697Z,3.27
2019-02-25T02:26:16.918Z,3.70
2019-02-25T02:28:45.410Z,3.90
2019-02-25T02:31:13.641Z,3.40
2019-02-25T02:33:41.847Z,3.63
2019-02-25T02:36:11.721Z,3.20
2019-02-25T02:38:40.159Z,3.80
2019-02-25T02:41:08.398Z,3.27
2019-02-25T02:43:36.603Z,3.67
2019-02-25T02:46:06.389Z,3.27
2019-02-25T02:48:38.809Z,3.20
2019-02-25T02:51:07.014Z,3.30
2019-02-25T02:53:35.227Z,2.87
2019-02-25T02:56:03.456Z,3.93
2019-02-25T02:58:31.671Z,3.60
2019-02-25T03:00:59.963Z,2.80
2019-02-25T03:03:28.167Z,3.53
2019-02-25T03:05:56.398Z,4.13
2019-02-25T03:08:24.622Z,3.30
2019-02-25T03:10:52.840Z,4.27
2019-02-25T03:13:21.061Z,3.13
2019-02-25T03:15:49.274Z,3.77
2019-02-25T03:18:17.499Z,3.27
2019-02-25T03:20:45.727Z,2.97
2019-02-25T03:23:13.953Z,4.37
2019-02-25T03:25:42.167Z,3.17
2019-02-25T03:28:10.396Z,2.80
2019-02-25T03:30:38.599Z,3.30
2019-02-25T03:33:07.268Z,3.00
2019-02-25T03:35:35.559Z,3.50
2019-02-25T03:38:03.922Z,3.23
2019-02-25T03:40:32.143Z,3.03
2019-02-25T03:43:00.360Z,3.07
2019-02-25T03:45:28.568Z,3.90
2019-02-25T03:47:56.842Z,3.20
2019-02-25T03:50:25.050Z,3.40
2019-02-25T03:52:53.284Z,3.40
2019-02-25T03:55:21.648Z,3.13
2019-02-25T03:57:49.874Z,3.23
2019-02-25T04:00:19.633Z,3.93
2019-02-25T04:02:47.944Z,3.80
2019-02-25T04:05:16.144Z,3.70
2019-02-25T04:07:44.452Z,3.23
2019-02-25T04:10:13.327Z,2.73
2019-02-25T04:12:41.626Z,2.87
2019-02-25T04:15:11.562Z,3.47
2019-02-25T04:17:39.844Z,4.00
2019-02-25T04:20:09.697Z,3.53
2019-02-25T04:22:37.911Z,3.03
2019-02-25T04:25:06.507Z,3.43
2019-02-25T04:27:34.720Z,3.23
2019-02-25T04:30:02.934Z,3.43
2019-02-25T04:32:32.788Z,3.40
2019-02-25T04:35:01.035Z,4.20
2019-02-25T04:37:29.268Z,4.17
2019-02-25T04:39:57.484Z,3.80
2019-02-25T04:42:25.704Z,3.87
2019-02-25T04:44:53.916Z,3.67
2019-02-25T04:47:22.143Z,3.80
2019-02-25T04:49:50.364Z,3.40
2019-02-25T04:52:18.579Z,4.70
2019-02-25T04:54:46.790Z,4.10
2019-02-25T04:57:15.015Z,4.83
2019-02-25T04:59:43.223Z,4.13
2019-02-25T05:02:11.447Z,4.57
2019-02-25T05:04:39.934Z,4.47
2019-02-25T05:07:08.159Z,4.87
2019-02-25T05:09:36.372Z,3.93
2019-02-25T05:12:04.621Z,5.30
2019-02-25T05:14:32.889Z,4.53
2019-02-25T05:17:01.106Z,4.70
2019-02-25T05:19:29.318Z,4.30
2019-02-25T05:21:57.603Z,4.57
2019-02-25T05:24:25.819Z,3.90
2019-02-25T05:26:54.031Z,4.27
2019-02-25T05:29:22.260Z,3.90
2019-02-25T05:31:50.475Z,4.27
2019-02-25T05:34:18.693Z,5.10
2019-02-25T05:36:46.915Z,4.67
2019-02-25T05:39:15.139Z,3.93
2019-02-25T05:41:43.345Z,4.90
2019-02-25T05:44:11.567Z,4.13
2019-02-25T05:46:39.772Z,4.70
2019-02-25T05:49:07.999Z,3.90
2019-02-25T05:51:36.497Z,4.23
2019-02-25T05:54:04.702Z,4.40
2019-02-25T05:56:32.910Z,4.37
2019-02-25T05:59:01.135Z,4.57
2019-02-25T06:01:29.344Z,4.30
2019-02-25T06:03:57.567Z,4.70
2019-02-25T06:06:25.779Z,4.97
2019-02-25T06:08:54.009Z,4.17
2019-02-25T06:11:22.222Z,4.60
2019-02-25T06:13:50.436Z,5.27
2019-02-25T06:16:18.642Z,5.17
2019-02-25T06:18:46.869Z,4.73
2019-02-25T06:21:15.099Z,5.10
2019-02-25T06:23:43.323Z,4.00
2019-02-25T06:26:11.550Z,3.50
2019-02-25T06:28:39.772Z,4.67
2019-02-25T06:31:07.990Z,4.60
2019-02-25T06:33:36.201Z,4.40
2019-02-25T06:36:04.416Z,4.47
2019-02-25T06:38:32.637Z,3.97
2019-02-25T06:41:00.850Z,3.50
2019-02-25T06:43:29.066Z,4.40
2019-02-25T06:45:57.300Z,4.40
2019-02-25T06:48:25.527Z,4.50
2019-02-25T06:50:53.736Z,4.10
2019-02-25T06:53:21.951Z,4.20
2019-02-25T06:55:50.186Z,4.80
2019-02-25T06:58:18.422Z,5.53
2019-02-25T07:00:46.636Z,5.03
2019-02-25T07:03:14.854Z,4.60
2019-02-25T07:05:50.732Z,5.70
2019-02-25T07:08:37.274Z,5.50
2019-02-25T07:11:07.142Z,5.93
2019-02-25T07:13:39.647Z,5.60
2019-02-25T07:16:12.313Z,5.20
2019-02-25T07:18:58.918Z,4.13
2019-02-25T07:21:28.774Z,4.30
2019-02-25T07:23:58.619Z,4.73
2019-02-25T07:26:31.808Z,4.80
2019-02-25T07:29:07.620Z,4.53
2019-02-25T07:31:54.122Z,5.17
2019-02-25T07:34:27.007Z,4.77
2019-02-25T07:39:50.167Z,5.43
2019-02-25T07:42:20.051Z,5.50
2019-02-25T07:44:49.910Z,5.57
2019-02-25T07:47:25.431Z,5.33
2019-02-25T07:49:55.369Z,5.07
2019-02-25T07:52:33.991Z,5.60
2019-02-25T07:55:06.531Z,4.40
2019-02-25T07:57:39.342Z,4.63
2019-02-25T08:00:13.316Z,5.17
2019-02-25T08:02:43.167Z,5.47
2019-02-25T08:05:13.031Z,5.30
2019-02-25T08:07:42.884Z,5.17
2019-02-25T08:10:29.101Z,21.40
2019-02-25T08:12:58.951Z,6.03
2019-02-25T08:15:28.810Z,4.83
2019-02-25T08:18:04.427Z,5.20
2019-02-25T08:20:37.143Z,4.80
2019-02-25T08:23:12.675Z,4.70
2019-02-25T08:25:54.451Z,4.80
2019-02-25T08:28:24.296Z,5.17
2019-02-25T08:31:09.550Z,4.73
2019-02-25T08:33:45.519Z,5.17
2019-02-25T08:36:19.468Z,5.50
2019-02-25T08:38:58.644Z,4.90
2019-02-25T08:41:31.478Z,4.57
2019-02-25T08:44:17.826Z,4.47
2019-02-25T08:46:56.555Z,5.37
2019-02-25T08:49:26.419Z,4.90
2019-02-25T08:51:54.634Z,5.27
2019-02-25T08:54:22.844Z,4.83
2019-02-25T08:56:51.073Z,8.80
2019-02-25T08:59:19.288Z,5.33
2019-02-25T09:01:47.514Z,6.27
2019-02-25T09:04:15.723Z,5.03
2019-02-25T09:06:44.000Z,4.90
2019-02-25T09:09:12.240Z,5.67
2019-02-25T09:11:40.471Z,5.80
2019-02-25T09:14:08.750Z,6.33
2019-02-25T09:16:36.975Z,4.83
2019-02-25T09:19:05.187Z,4.93
2019-02-25T09:21:33.398Z,4.87
2019-02-25T09:24:01.605Z,4.70
2019-02-25T09:26:29.832Z,3.73
2019-02-25T09:28:58.043Z,4.17
2019-02-25T09:31:26.632Z,4.23
2019-02-25T09:33:54.840Z,4.23
2019-02-25T09:36:23.047Z,3.90
2019-02-25T09:38:51.267Z,3.70
2019-02-25T09:41:19.482Z,3.70
2019-02-25T09:43:47.708Z,3.50
2019-02-25T09:46:16.174Z,3.87
2019-02-25T09:48:44.394Z,3.80
2019-02-25T09:51:12.613Z,3.20
2019-02-25T09:53:40.826Z,3.23
2019-02-25T09:56:09.044Z,3.57
2019-02-25T09:58:37.559Z,4.73
2019-02-25T10:01:06.251Z,3.37
2019-02-25T10:03:34.479Z,3.03
2019-02-25T10:06:02.679Z,3.43
2019-02-25T10:08:30.911Z,2.97
2019-02-25T10:10:59.118Z,3.17
2019-02-25T10:13:27.339Z,2.90
2019-02-25T10:15:55.551Z,2.57
2019-02-25T10:18:23.784Z,3.10
2019-02-25T10:20:51.990Z,2.57
2019-02-25T10:23:20.215Z,2.80
2019-02-25T10:25:48.430Z,2.83
2019-02-25T10:28:16.648Z,2.30
2019-02-25T10:30:52.546Z,2.43
2019-02-25T10:33:14.778Z,3.67
2019-02-25T10:35:42.986Z,2.70
2019-02-25T10:38:11.211Z,3.17
2019-02-25T10:40:39.422Z,2.80
2019-02-25T10:43:07.654Z,5.47
2019-02-25T10:45:37.308Z,2.90
2019-02-25T10:48:05.768Z,2.47
2019-02-25T10:50:35.833Z,2.67
2019-02-25T10:53:10.959Z,2.80
2019-02-25T10:55:45.055Z,2.80
2019-02-25T10:58:11.699Z,3.40
2019-02-25T11:00:41.624Z,3.53
2019-02-25T11:03:10.715Z,3.40
2019-02-25T11:05:39.760Z,3.97
2019-02-25T11:08:11.510Z,3.33
2019-02-25T11:10:41.187Z,3.50
2019-02-25T11:13:09.469Z,3.17
2019-02-25T11:15:40.209Z,2.90
2019-02-25T11:18:08.142Z,2.97
2019-02-25T11:20:37.869Z,3.47
2019-02-25T11:23:06.146Z,2.90
2019-02-25T11:25:34.383Z,3.33
2019-02-25T11:28:04.415Z,3.13
2019-02-25T11:30:32.762Z,3.07
2019-02-25T11:33:00.974Z,2.97
2019-02-25T11:35:29.199Z,3.07
2019-02-25T11:37:59.627Z,2.57
2019-02-25T11:40:29.005Z,2.90
2019-02-25T11:42:57.243Z,3.13
2019-02-25T11:45:25.463Z,2.63
2019-02-25T11:47:53.707Z,2.53
2019-02-25T11:50:21.928Z,2.77
2019-02-25T11:52:50.201Z,3.17
2019-02-25T11:55:18.598Z,3.20
2019-02-25T11:57:46.795Z,2.60
2019-02-25T12:00:16.551Z,3.23
2019-02-25T12:02:44.767Z,2.73
2019-02-25T12:05:13.964Z,2.50
2019-02-25T12:07:42.178Z,2.83
2019-02-25T12:10:11.566Z,2.60
2019-02-25T12:12:39.776Z,3.00
2019-02-25T12:15:14.858Z,2.37
2019-02-25T12:17:43.213Z,2.60
2019-02-25T12:20:12.205Z,2.10
2019-02-25T12:22:40.411Z,2.73
2019-02-25T12:25:12.839Z,2.77
2019-02-25T12:27:41.109Z,2.80
2019-02-25T12:30:13.555Z,1.97
2019-02-25T12:32:41.815Z,2.60
2019-02-25T12:35:10.527Z,3.10
2019-02-25T12:37:38.734Z,2.47
2019-02-25T12:40:11.158Z,2.47
2019-02-25T12:42:39.363Z,2.57
2019-02-25T12:45:08.958Z,6.33
2019-02-25T12:47:37.179Z,2.55
2019-02-25T12:50:06.495Z,2.62
2019-02-25T12:52:34.695Z,2.27
2019-02-25T12:55:02.920Z,3.02
2019-02-25T12:57:31.127Z,3.25
2019-02-25T12:59:59.347Z,2.40
2019-02-25T13:02:27.560Z,1.62
2019-02-25T13:04:55.790Z,2.17
2019-02-25T13:07:23.998Z,2.25
2019-02-25T13:09:52.244Z,2.13
2019-02-25T13:12:20.456Z,2.20
2019-02-25T13:14:48.695Z,2.33
2019-02-25T13:17:16.898Z,2.40
2019-02-25T13:19:45.130Z,2.40
2019-02-25T13:22:13.407Z,2.20
2019-02-25T13:24:41.628Z,2.10
2019-02-25T13:27:11.803Z,2.63
2019-02-25T13:29:39.753Z,2.03
2019-02-25T13:32:08.031Z,2.47
2019-02-25T13:34:36.244Z,2.43
2019-02-25T13:37:04.743Z,2.40
2019-02-25T13:39:32.951Z,2.30
2019-02-25T13:42:01.258Z,2.30
2019-02-25T13:44:29.540Z,2.40
2019-02-25T13:46:57.840Z,2.40
2019-02-25T13:49:26.051Z,2.23
2019-02-25T13:51:54.266Z,2.53
2019-02-25T13:54:22.555Z,2.20
2019-02-25T13:56:51.059Z,2.17
2019-02-25T13:59:19.340Z,2.27
2019-02-25T14:01:47.561Z,2.60
2019-02-25T14:04:15.846Z,2.33
2019-02-25T14:06:44.138Z,2.40
2019-02-25T14:09:13.319Z,2.73
2019-02-25T14:11:41.542Z,2.77
2019-02-25T14:14:10.031Z,2.80
2019-02-25T14:16:38.323Z,2.60
2019-02-25T14:19:06.532Z,2.60
2019-02-25T14:21:36.444Z,2.53
2019-02-25T14:24:04.751Z,2.43
2019-02-25T14:26:32.975Z,2.40
2019-02-25T14:29:01.184Z,2.00
2019-02-25T14:31:29.952Z,2.60
2019-02-25T14:33:58.290Z,2.37
2019-02-25T14:36:28.283Z,2.47
2019-02-25T14:38:58.704Z,2.40
2019-02-25T14:41:26.665Z,2.30
2019-02-25T14:43:56.147Z,2.40
2019-02-25T14:46:26.705Z,2.90
2019-02-25T14:48:54.766Z,2.60
2019-02-25T14:51:22.987Z,2.43
2019-02-25T14:53:52.738Z,2.60
2019-02-25T14:56:27.595Z,3.07
2019-02-25T14:58:55.823Z,2.30
2019-02-25T15:01:25.666Z,2.33
2019-02-25T15:03:55.512Z,2.30
2019-02-25T15:06:25.553Z,2.37
2019-02-25T15:08:53.944Z,3.00
2019-02-25T15:11:22.727Z,2.20
2019-02-25T15:13:51.079Z,2.33
2019-02-25T15:16:19.292Z,2.30
2019-02-25T15:18:47.584Z,2.90
2019-02-25T15:21:16.039Z,1.77
2019-02-25T15:23:44.654Z,2.70
2019-02-25T15:26:15.009Z,2.17
2019-02-25T15:28:42.789Z,2.20
2019-02-25T15:31:11.980Z,2.10
2019-02-25T15:33:42.483Z,2.80
2019-02-25T15:36:11.489Z,2.70
2019-02-25T15:38:41.134Z,2.20
2019-02-25T15:41:11.286Z,3.03
2019-02-25T15:43:39.527Z,2.50
2019-02-25T15:46:07.974Z,3.40
2019-02-25T15:48:37.329Z,2.60
2019-02-25T15:51:06.092Z,3.10
2019-02-25T15:53:34.378Z,3.30
2019-02-25T15:56:03.683Z,2.90
2019-02-25T15:58:32.724Z,3.27
2019-02-25T16:01:00.997Z,2.80
2019-02-25T16:03:29.279Z,2.77
2019-02-25T16:06:01.500Z,2.97
2019-02-25T16:08:28.747Z,3.27
2019-02-25T16:10:58.302Z,3.07
2019-02-25T16:13:27.487Z,3.20
2019-02-25T16:15:55.770Z,3.40
2019-02-25T16:18:25.325Z,3.20
2019-02-25T16:20:53.975Z,2.87
2019-02-25T16:23:22.472Z,3.50
2019-02-25T16:25:52.616Z,3.47
2019-02-25T16:28:20.599Z,3.33
2019-02-25T16:30:49.680Z,4.10
2019-02-25T16:33:18.791Z,3.70
2019-02-25T16:35:47.082Z,3.10
2019-02-25T16:38:15.386Z,3.27
2019-02-25T16:40:43.656Z,3.50
2019-02-25T16:43:12.832Z,3.40
2019-02-25T16:45:42.550Z,3.40
2019-02-25T16:48:11.762Z,4.23
2019-02-25T16:50:42.190Z,3.10
2019-02-25T16:53:10.903Z,3.13
2019-02-25T16:55:42.062Z,3.20
2019-02-25T16:58:12.903Z,3.13
2019-02-25T17:00:41.771Z,3.63
2019-02-25T17:03:11.195Z,3.43
2019-02-25T17:05:42.107Z,2.90
2019-02-25T17:08:12.574Z,3.30
2019-02-25T17:10:40.938Z,2.80
2019-02-25T17:13:10.376Z,5.00
2019-02-25T17:15:39.153Z,6.13
2019-02-25T17:18:07.661Z,6.53
2019-02-25T17:20:35.946Z,6.30
2019-02-25T17:23:04.185Z,22.10
2019-02-25T17:25:34.094Z,11.40
2019-02-25T17:28:02.409Z,6.53
2019-02-25T17:30:30.698Z,5.97
2019-02-25T17:33:01.100Z,5.77
2019-02-25T17:35:30.789Z,5.93
2019-02-25T17:38:00.941Z,5.73
2019-02-25T17:40:29.431Z,5.67
2019-02-25T17:42:58.078Z,6.13
2019-02-25T17:45:27.694Z,5.53
2019-02-25T17:47:58.500Z,5.70
2019-02-25T17:50:26.755Z,5.60
2019-02-25T17:52:55.057Z,5.70
2019-02-25T17:55:27.684Z,8.23
2019-02-25T17:57:58.659Z,9.33
2019-02-25T18:00:29.954Z,9.87
2019-02-25T18:02:59.774Z,6.57
2019-02-25T18:05:29.159Z,7.13
2019-02-25T18:07:57.506Z,7.90
2019-02-25T18:10:27.310Z,8.70
2019-02-25T18:12:57.298Z,7.27
2019-02-25T18:15:28.399Z,7.03
2019-02-25T18:17:57.058Z,7.30
2019-02-25T18:20:25.936Z,7.00
2019-02-25T18:22:54.867Z,7.13
2019-02-25T18:25:23.349Z,7.43
2019-02-25T18:27:51.987Z,9.70
2019-02-25T18:30:28.204Z,8.33
2019-02-25T18:32:59.792Z,9.23
2019-02-25T18:35:26.980Z,7.57
2019-02-25T18:37:55.876Z,6.70
2019-02-25T18:40:24.877Z,8.70
2019-02-25T18:42:53.176Z,7.67
2019-02-25T18:45:21.386Z,7.83
2019-02-25T18:47:50.063Z,8.00
2019-02-25T18:50:24.149Z,8.40
2019-02-25T18:52:54.640Z,7.10
2019-02-25T18:55:24.925Z,7.90
2019-02-25T18:57:54.110Z,8.10
2019-02-25T19:00:26.315Z,8.60
2019-02-25T19:02:56.175Z,9.10
2019-02-25T19:05:27.137Z,9.63
2019-02-25T19:07:57.206Z,8.43
2019-02-25T19:10:26.842Z,8.07
2019-02-25T19:12:56.359Z,8.70
2019-02-25T19:15:25.487Z,9.47
2019-02-25T19:17:54.384Z,8.67
2019-02-25T19:20:23.144Z,9.70
2019-02-25T19:22:51.546Z,9.23
2019-02-25T19:25:20.887Z,9.40
2019-02-25T19:27:51.793Z,8.70
2019-02-25T19:30:22.127Z,8.07
2019-02-25T19:32:50.339Z,9.27
2019-02-25T19:35:18.559Z,8.67
2019-02-25T19:37:47.225Z,12.57
2019-02-25T19:40:19.426Z,9.10
2019-02-25T19:42:49.384Z,8.57
2019-02-25T19:45:17.654Z,7.17
2019-02-25T19:47:46.227Z,8.50
2019-02-25T19:50:18.251Z,9.00
2019-02-25T19:52:46.756Z,8.30
2019-02-25T19:55:15.847Z,8.10
2019-02-25T19:57:45.136Z,8.27
2019-02-25T20:00:22.033Z,7.47
2019-02-25T20:02:48.980Z,9.30
2019-02-25T20:05:19.377Z,11.20
2019-02-25T20:07:47.560Z,9.63
2019-02-25T20:10:15.767Z,8.93
2019-02-25T20:12:43.993Z,11.33
2019-02-25T20:15:23.083Z,11.40
2019-02-25T20:17:51.101Z,11.40
2019-02-25T20:20:20.484Z,9.70
2019-02-25T20:22:48.703Z,9.87
2019-02-25T20:25:18.843Z,10.17
2019-02-25T20:27:47.171Z,8.77
2019-02-25T20:30:16.250Z,9.57
2019-02-25T20:32:44.478Z,8.40
2019-02-25T20:35:13.971Z,9.03
2019-02-25T20:37:43.690Z,9.10
2019-02-25T20:40:12.275Z,8.00
2019-02-25T20:42:40.498Z,8.40
2019-02-25T20:45:10.257Z,9.77
2019-02-25T20:47:38.473Z,9.57
2019-02-25T20:50:08.526Z,10.37
2019-02-25T20:52:38.845Z,9.50
2019-02-25T20:55:08.844Z,8.40
2019-02-25T20:57:38.177Z,8.27
2019-02-25T21:00:13.224Z,8.20
2019-02-25T21:02:41.603Z,8.20
2019-02-25T21:05:13.916Z,8.03
2019-02-25T21:07:40.193Z,7.77
2019-02-25T21:10:10.866Z,7.33
2019-02-25T21:12:39.075Z,6.90
2019-02-25T21:15:11.600Z,6.67
2019-02-25T21:17:40.256Z,8.37
2019-02-25T21:20:10.167Z,5.93
2019-02-25T21:22:38.658Z,5.27
2019-02-25T21:25:08.516Z,6.50
2019-02-25T21:27:37.485Z,6.17
2019-02-25T21:30:16.531Z,6.67
2019-02-25T21:32:47.128Z,6.00
2019-02-25T21:35:17.869Z,6.23
2019-02-25T21:37:47.885Z,6.47
2019-02-25T21:40:17.554Z,7.10
2019-02-25T21:42:46.882Z,5.87
2019-02-25T21:45:18.072Z,7.47
2019-02-25T21:47:47.627Z,6.43
2019-02-25T21:50:16.479Z,8.37
2019-02-25T21:52:45.718Z,6.90
2019-02-25T21:55:16.015Z,9.90
2019-02-25T21:57:44.228Z,6.40
2019-02-25T22:00:14.001Z,7.10
2019-02-25T22:02:44.053Z,7.00
2019-02-25T22:05:14.349Z,6.90
2019-02-25T22:07:42.051Z,8.43
2019-02-25T22:10:11.815Z,7.83
2019-02-25T22:12:42.050Z,7.23
2019-02-25T22:15:12.967Z,8.07
2019-02-25T22:17:43.381Z,10.77
2019-02-25T22:20:14.940Z,8.40
2019-02-25T22:22:44.189Z,6.30
2019-02-25T22:25:15.624Z,6.83
2019-02-25T22:27:45.620Z,7.50
2019-02-25T22:30:17.212Z,7.20
2019-02-25T22:32:45.423Z,6.97
2019-02-25T22:35:15.036Z,7.70
2019-02-25T22:37:46.740Z,6.63
2019-02-25T22:40:15.070Z,7.17
2019-02-25T22:42:43.825Z,5.87
2019-02-25T22:45:18.612Z,6.23
2019-02-25T22:47:46.406Z,6.47
2019-02-25T22:50:15.285Z,6.13
2019-02-25T22:52:43.741Z,5.17
2019-02-25T22:55:14.863Z,7.57
2019-02-25T22:57:43.504Z,7.03
2019-02-25T23:00:16.819Z,7.53
2019-02-25T23:02:45.674Z,7.83
2019-02-25T23:05:16.784Z,8.50
2019-02-25T23:07:45.953Z,6.83
2019-02-25T23:10:17.087Z,9.93
2019-02-25T23:12:44.791Z,8.70
2019-02-25T23:15:13.006Z,8.20
2019-02-25T23:17:42.875Z,8.60
2019-02-25T23:20:11.517Z,8.00
2019-02-25T23:22:39.727Z,8.97
2019-02-25T23:25:08.827Z,9.13
2019-02-25T23:27:38.798Z,7.50
2019-02-25T23:30:11.155Z,8.13
2019-02-25T23:32:39.543Z,7.60
2019-02-25T23:35:11.460Z,7.00
2019-02-25T23:37:37.964Z,7.93
2019-02-25T23:40:09.501Z,7.27
2019-02-25T23:42:39.661Z,6.73
2019-02-25T23:45:10.637Z,7.23
2019-02-25T23:47:39.979Z,6.73
2019-02-25T23:50:10.974Z,6.27
2019-02-25T23:52:39.700Z,5.70
2019-02-25T23:55:12.207Z,6.37
2019-02-25T23:57:39.019Z,6.40
